createdAt,value
2018-03-11T00:00:46.600Z,100.00
2018-03-11T00:03:14.067Z,100.00
2018-03-11T00:05:41.526Z,100.00
2018-03-11T00:08:09.276Z,100.00
2018-03-11T00:10:36.740Z,100.00
2018-03-11T00:13:04.193Z,100.00
2018-03-11T00:15:31.965Z,100.00
2018-03-11T00:17:59.426Z,100.00
2018-03-11T00:20:26.881Z,100.00
2018-03-11T00:22:54.660Z,100.00
2018-03-11T00:25:23.104Z,100.00
2018-03-11T00:27:50.557Z,100.00
2018-03-11T00:30:18.269Z,100.00
2018-03-11T00:32:45.738Z,100.00
2018-03-11T00:35:13.205Z,100.00
2018-03-11T00:37:40.954Z,100.00
2018-03-11T00:40:08.418Z,100.00
2018-03-11T00:42:35.881Z,100.00
2018-03-11T00:45:03.645Z,100.00
2018-03-11T00:47:31.184Z,100.00
2018-03-11T00:49:58.653Z,100.00
2018-03-11T00:52:26.330Z,100.00
2018-03-11T00:54:53.791Z,100.00
2018-03-11T00:57:21.434Z,100.00
2018-03-11T00:59:49.285Z,100.00
2018-03-11T01:02:16.738Z,100.00
2018-03-11T01:04:44.202Z,100.00
2018-03-11T01:07:12.019Z,100.00
2018-03-11T01:09:39.473Z,100.00
2018-03-11T01:12:06.930Z,100.00
2018-03-11T01:14:34.688Z,100.00
2018-03-11T01:17:02.149Z,100.00
2018-03-11T01:19:29.608Z,100.00
2018-03-11T01:21:57.324Z,100.00
2018-03-11T01:24:24.786Z,100.00
2018-03-11T01:26:53.006Z,100.00
2018-03-11T01:29:20.992Z,100.00
2018-03-11T01:31:48.454Z,100.00
2018-03-11T01:34:15.919Z,100.00
2018-03-11T01:36:43.588Z,100.00
2018-03-11T01:39:11.053Z,100.00
2018-03-11T01:41:38.522Z,100.00
2018-03-11T01:44:06.673Z,100.00
2018-03-11T01:46:34.131Z,100.00
2018-03-11T01:49:01.605Z,100.00
2018-03-11T01:51:29.685Z,100.00
2018-03-11T01:53:57.201Z,100.00
2018-03-11T01:56:24.657Z,100.00
2018-03-11T01:58:52.354Z,100.00
2018-03-11T02:01:19.810Z,100.00
2018-03-11T02:03:47.260Z,100.00
2018-03-11T02:06:15.041Z,100.00
2018-03-11T02:08:42.499Z,100.00
2018-03-11T02:11:09.962Z,100.00
2018-03-11T02:13:37.739Z,100.00
2018-03-11T02:16:05.199Z,100.00
2018-03-11T02:18:32.671Z,100.00
2018-03-11T02:21:00.734Z,100.00
2018-03-11T02:23:28.209Z,100.00
2018-03-11T02:25:55.677Z,100.00
2018-03-11T02:28:23.733Z,100.00
2018-03-11T02:30:51.192Z,100.00
2018-03-11T02:33:18.644Z,100.00
2018-03-11T02:35:46.410Z,100.00
2018-03-11T02:38:13.869Z,100.00
2018-03-11T02:40:41.336Z,100.00
2018-03-11T02:43:09.116Z,100.00
2018-03-11T02:45:36.574Z,100.00
2018-03-11T02:48:04.039Z,100.00
2018-03-11T02:50:32.429Z,100.00
2018-03-11T02:52:59.888Z,100.00
2018-03-11T02:55:27.345Z,100.00
2018-03-11T02:57:55.091Z,100.00
2018-03-11T03:00:22.549Z,100.00
2018-03-11T03:02:50.009Z,100.00
2018-03-11T03:05:18.072Z,100.00
2018-03-11T03:07:45.529Z,100.00
2018-03-11T03:10:12.993Z,100.00
2018-03-11T03:12:41.072Z,100.00
2018-03-11T03:15:08.529Z,100.00
2018-03-11T03:17:35.992Z,100.00
2018-03-11T03:20:04.373Z,100.00
2018-03-11T03:22:31.840Z,100.00
2018-03-11T03:24:59.307Z,100.00
2018-03-11T03:27:27.365Z,100.00
2018-03-11T03:29:55.209Z,100.00
2018-03-11T03:32:22.666Z,100.00
2018-03-11T03:34:50.972Z,100.00
2018-03-11T03:37:18.425Z,100.00
2018-03-11T03:39:45.886Z,100.00
2018-03-11T03:42:13.662Z,100.00
2018-03-11T03:44:41.133Z,100.00
2018-03-11T03:47:08.641Z,100.00
2018-03-11T03:49:36.978Z,100.00
2018-03-11T03:52:04.436Z,100.00
2018-03-11T03:54:32.382Z,100.00
2018-03-11T03:57:00.315Z,100.00
2018-03-11T03:59:27.777Z,100.00
2018-03-11T04:01:55.272Z,100.00
2018-03-11T04:04:23.250Z,100.00
2018-03-11T04:06:50.713Z,100.00
2018-03-11T04:09:18.180Z,100.00
2018-03-11T04:11:46.247Z,100.00
2018-03-11T04:14:13.690Z,100.00
2018-03-11T04:16:41.184Z,100.00
2018-03-11T04:19:08.947Z,100.00
2018-03-11T04:21:36.410Z,100.00
2018-03-11T04:24:03.877Z,100.00
2018-03-11T04:26:31.940Z,100.00
2018-03-11T04:28:59.404Z,100.00
2018-03-11T04:31:29.090Z,100.00
2018-03-11T04:33:57.076Z,100.00
2018-03-11T04:36:24.557Z,100.00
2018-03-11T04:38:52.020Z,100.00
2018-03-11T04:41:19.849Z,100.00
2018-03-11T04:43:47.322Z,100.00
2018-03-11T04:46:14.781Z,100.00
2018-03-11T04:48:43.076Z,100.00
2018-03-11T04:51:10.541Z,100.00
2018-03-11T04:53:38.011Z,100.00
2018-03-11T04:56:05.784Z,100.00
2018-03-11T04:58:33.250Z,100.00
2018-03-11T05:01:00.711Z,100.00
2018-03-11T05:03:28.438Z,100.00
2018-03-11T05:05:55.913Z,100.00
2018-03-11T05:08:23.399Z,100.00
2018-03-11T05:10:51.452Z,100.00
2018-03-11T05:13:18.905Z,100.00
2018-03-11T05:15:46.357Z,100.00
2018-03-11T05:18:14.426Z,100.00
2018-03-11T05:20:41.887Z,100.00
2018-03-11T05:23:09.353Z,100.00
2018-03-11T05:25:36.940Z,100.00
2018-03-11T05:28:04.413Z,100.00
2018-03-11T05:30:31.873Z,100.00
2018-03-11T05:33:00.310Z,100.00
2018-03-11T05:35:27.778Z,100.00
2018-03-11T05:37:55.245Z,100.00
2018-03-11T05:40:23.112Z,100.00
2018-03-11T05:42:50.574Z,100.00
2018-03-11T05:45:18.033Z,100.00
2018-03-11T05:47:45.798Z,100.00
2018-03-11T05:50:13.265Z,100.00
2018-03-11T05:52:40.736Z,100.00
2018-03-11T05:55:08.778Z,100.00
2018-03-11T05:57:36.238Z,100.00
2018-03-11T06:00:04.065Z,100.00
2018-03-11T06:02:31.796Z,100.00
2018-03-11T06:04:59.262Z,100.00
2018-03-11T06:07:26.716Z,100.00
2018-03-11T06:09:54.519Z,100.00
2018-03-11T06:12:21.986Z,100.00
2018-03-11T06:14:49.454Z,100.00
2018-03-11T06:17:17.462Z,100.00
2018-03-11T06:19:44.914Z,100.00
2018-03-11T06:22:12.373Z,100.00
2018-03-11T06:24:40.092Z,100.00
2018-03-11T06:27:07.541Z,100.00
2018-03-11T06:29:34.998Z,100.00
2018-03-11T06:32:02.892Z,100.00
2018-03-11T06:34:30.912Z,100.00
2018-03-11T06:36:58.381Z,100.00
2018-03-11T06:39:26.097Z,100.00
2018-03-11T06:41:53.565Z,100.00
2018-03-11T06:44:21.029Z,100.00
2018-03-11T06:46:48.860Z,98.56
2018-03-11T06:49:16.309Z,97.15
2018-03-11T06:51:43.760Z,96.29
2018-03-11T06:54:11.810Z,95.55
2018-03-11T06:56:39.272Z,95.82
2018-03-11T06:59:06.717Z,96.12
2018-03-11T07:01:34.814Z,95.86
2018-03-11T07:04:02.271Z,95.68
2018-03-11T07:06:29.730Z,95.67
2018-03-11T07:08:57.496Z,97.46
2018-03-11T07:11:24.945Z,95.11
2018-03-11T07:13:52.403Z,93.31
2018-03-11T07:16:20.205Z,92.19
2018-03-11T07:18:47.657Z,92.31
2018-03-11T07:21:15.121Z,92.61
2018-03-11T07:23:42.880Z,94.12
2018-03-11T07:26:10.332Z,94.15
2018-03-11T07:28:37.790Z,95.70
2018-03-11T07:31:05.884Z,95.68
2018-03-11T07:33:33.354Z,95.49
2018-03-11T07:36:01.812Z,94.80
2018-03-11T07:38:29.504Z,95.49
2018-03-11T07:40:56.986Z,94.88
2018-03-11T07:43:24.429Z,95.28
2018-03-11T07:45:52.180Z,94.37
2018-03-11T07:48:19.625Z,93.73
2018-03-11T07:50:47.072Z,94.60
2018-03-11T07:53:14.861Z,92.76
2018-03-11T07:55:42.325Z,92.46
2018-03-11T07:58:09.785Z,91.99
2018-03-11T08:00:37.539Z,92.17
2018-03-11T08:03:04.998Z,89.84
2018-03-11T08:05:32.459Z,90.18
2018-03-11T08:08:00.237Z,89.25
2018-03-11T08:10:27.710Z,88.53
2018-03-11T08:12:55.171Z,88.67
2018-03-11T08:15:23.232Z,88.47
2018-03-11T08:17:50.689Z,87.74
2018-03-11T08:20:18.201Z,87.04
2018-03-11T08:22:46.239Z,86.63
2018-03-11T08:25:13.701Z,86.06
2018-03-11T08:27:41.166Z,87.12
2018-03-11T08:30:08.900Z,87.82
2018-03-11T08:32:36.361Z,86.27
2018-03-11T08:35:03.825Z,85.63
2018-03-11T08:37:32.206Z,86.17
2018-03-11T08:39:59.661Z,86.33
2018-03-11T08:42:27.120Z,84.76
2018-03-11T08:44:54.898Z,82.83
2018-03-11T08:47:22.353Z,82.10
2018-03-11T08:49:49.825Z,83.84
2018-03-11T08:52:17.984Z,82.27
2018-03-11T08:54:45.444Z,81.07
2018-03-11T08:57:12.926Z,81.87
2018-03-11T08:59:40.882Z,83.27
2018-03-11T09:02:08.349Z,83.26
2018-03-11T09:04:35.808Z,83.20
2018-03-11T09:07:03.623Z,81.23
2018-03-11T09:09:31.091Z,81.96
2018-03-11T09:11:58.539Z,82.53
2018-03-11T09:14:26.447Z,81.19
2018-03-11T09:16:53.906Z,80.97
2018-03-11T09:19:21.375Z,79.13
2018-03-11T09:21:49.250Z,80.08
2018-03-11T09:24:16.716Z,79.47
2018-03-11T09:26:44.181Z,78.91
2018-03-11T09:29:12.240Z,75.60
2018-03-11T09:31:39.739Z,76.76
2018-03-11T09:34:07.190Z,74.32
2018-03-11T09:36:34.935Z,74.36
2018-03-11T09:39:03.427Z,75.14
2018-03-11T09:41:30.890Z,75.76
2018-03-11T09:43:58.625Z,78.46
2018-03-11T09:46:26.173Z,77.90
2018-03-11T09:48:53.645Z,79.97
2018-03-11T09:51:21.584Z,75.66
2018-03-11T09:53:49.046Z,75.57
2018-03-11T09:56:16.503Z,72.80
2018-03-11T09:58:44.267Z,72.69
2018-03-11T10:01:11.731Z,73.67
2018-03-11T10:03:39.201Z,72.15
2018-03-11T10:06:06.909Z,69.32
2018-03-11T10:08:34.420Z,69.34
2018-03-11T10:11:01.878Z,69.52
2018-03-11T10:13:29.660Z,69.47
2018-03-11T10:15:57.085Z,70.87
2018-03-11T10:18:24.553Z,67.98
2018-03-11T10:20:52.291Z,69.92
2018-03-11T10:23:19.753Z,69.10
2018-03-11T10:25:47.210Z,71.64
2018-03-11T10:28:15.011Z,72.13
2018-03-11T10:30:43.611Z,73.44
2018-03-11T10:33:11.070Z,72.48
2018-03-11T10:35:38.887Z,70.55
2018-03-11T10:38:06.336Z,71.06
2018-03-11T10:40:34.497Z,73.15
2018-03-11T10:43:02.476Z,69.91
2018-03-11T10:45:29.931Z,70.48
2018-03-11T10:47:57.394Z,71.84
2018-03-11T10:50:25.489Z,67.97
2018-03-11T10:52:52.956Z,72.24
2018-03-11T10:55:20.420Z,70.80
2018-03-11T10:57:48.175Z,70.35
2018-03-11T11:00:15.641Z,71.19
2018-03-11T11:02:43.102Z,69.89
2018-03-11T11:05:10.868Z,73.03
2018-03-11T11:07:38.345Z,70.42
2018-03-11T11:10:05.809Z,67.53
2018-03-11T11:12:33.586Z,66.50
2018-03-11T11:15:01.046Z,67.21
2018-03-11T11:17:28.505Z,65.80
2018-03-11T11:19:56.241Z,66.51
2018-03-11T11:22:23.706Z,68.86
2018-03-11T11:24:51.165Z,70.45
2018-03-11T11:27:18.925Z,70.02
2018-03-11T11:29:46.385Z,68.07
2018-03-11T11:32:13.841Z,67.17
2018-03-11T11:34:41.872Z,69.17
2018-03-11T11:37:09.330Z,67.36
2018-03-11T11:39:36.794Z,64.01
2018-03-11T11:42:05.227Z,62.46
2018-03-11T11:44:32.696Z,63.95
2018-03-11T11:47:00.159Z,63.43
2018-03-11T11:49:27.972Z,65.27
2018-03-11T11:51:55.424Z,64.62
2018-03-11T11:54:22.896Z,64.74
2018-03-11T11:56:50.904Z,66.21
2018-03-11T11:59:18.376Z,66.65
2018-03-11T12:01:45.838Z,66.66
2018-03-11T12:04:13.604Z,67.57
2018-03-11T12:06:41.055Z,63.54
2018-03-11T12:09:08.515Z,64.73
2018-03-11T12:11:36.580Z,66.03
2018-03-11T12:14:04.036Z,62.41
2018-03-11T12:16:31.491Z,64.22
2018-03-11T12:18:59.267Z,66.46
2018-03-11T12:21:26.729Z,66.22
2018-03-11T12:23:54.197Z,64.67
2018-03-11T12:26:21.957Z,62.57
2018-03-11T12:28:49.452Z,62.27
2018-03-11T12:31:16.913Z,57.74
2018-03-11T12:33:44.903Z,59.73
2018-03-11T12:36:12.374Z,61.11
2018-03-11T12:38:39.840Z,60.66
2018-03-11T12:41:08.256Z,55.89
2018-03-11T12:43:35.805Z,56.03
2018-03-11T12:46:03.270Z,56.54
2018-03-11T12:48:31.246Z,58.08
2018-03-11T12:50:58.741Z,57.17
2018-03-11T12:53:26.206Z,58.95
2018-03-11T12:55:53.948Z,55.33
2018-03-11T12:58:21.424Z,57.20
2018-03-11T13:00:48.891Z,55.51
2018-03-11T13:03:17.009Z,54.41
2018-03-11T13:05:44.476Z,53.72
2018-03-11T13:08:11.934Z,53.98
2018-03-11T13:10:39.936Z,51.84
2018-03-11T13:13:07.402Z,55.60
2018-03-11T13:15:34.858Z,54.60
2018-03-11T13:18:02.607Z,56.38
2018-03-11T13:23:48.515Z,55.88
2018-03-11T13:26:15.996Z,54.53
2018-03-11T13:28:48.149Z,52.91
2018-03-11T13:31:15.832Z,55.89
2018-03-11T13:33:54.894Z,56.35
2018-03-11T13:36:22.749Z,58.82
2018-03-11T13:39:01.844Z,59.52
2018-03-11T13:41:29.636Z,56.51
2018-03-11T13:43:57.482Z,56.97
2018-03-11T13:46:36.804Z,56.15
2018-03-11T13:49:04.269Z,55.86
2018-03-11T13:51:43.737Z,54.86
2018-03-11T13:54:11.198Z,49.99
2018-03-11T13:56:38.655Z,47.75
2018-03-11T13:59:06.425Z,49.56
2018-03-11T14:01:33.872Z,45.11
2018-03-11T14:04:01.332Z,45.32
2018-03-11T14:06:29.131Z,47.61
2018-03-11T14:08:56.589Z,46.78
2018-03-11T14:11:24.063Z,49.66
2018-03-11T14:13:51.805Z,47.50
2018-03-11T14:16:19.253Z,47.78
2018-03-11T14:18:46.707Z,46.59
2018-03-11T14:21:14.449Z,52.70
2018-03-11T14:23:41.899Z,52.73
2018-03-11T14:26:09.353Z,54.86
2018-03-11T14:28:37.172Z,55.68
2018-03-11T14:31:04.640Z,54.39
2018-03-11T14:33:32.111Z,57.27
2018-03-11T14:35:59.852Z,56.49
2018-03-11T14:38:27.300Z,57.56
2018-03-11T14:40:54.758Z,56.93
2018-03-11T14:43:22.545Z,55.47
2018-03-11T14:45:50.388Z,57.49
2018-03-11T14:48:17.841Z,57.64
2018-03-11T14:50:45.553Z,58.45
2018-03-11T14:53:13.026Z,55.76
2018-03-11T14:55:40.481Z,58.83
2018-03-11T14:58:08.225Z,57.29
2018-03-11T15:00:35.724Z,57.92
2018-03-11T15:03:03.181Z,58.79
2018-03-11T15:05:31.209Z,59.24
2018-03-11T15:07:58.665Z,58.28
2018-03-11T15:10:26.125Z,61.03
2018-03-11T15:12:53.903Z,61.13
2018-03-11T15:15:21.352Z,56.15
2018-03-11T15:17:48.804Z,55.46
2018-03-11T15:20:16.600Z,56.66
2018-03-11T15:22:44.052Z,55.44
2018-03-11T15:25:11.511Z,54.34
2018-03-11T15:27:39.241Z,57.09
2018-03-11T15:30:06.716Z,59.07
2018-03-11T15:32:34.179Z,59.60
2018-03-11T15:35:01.980Z,59.37
2018-03-11T15:37:29.441Z,60.47
2018-03-11T15:39:56.910Z,58.91
2018-03-11T15:42:24.538Z,56.37
2018-03-11T15:44:51.987Z,52.72
2018-03-11T15:47:21.193Z,52.65
2018-03-11T15:49:48.890Z,54.44
2018-03-11T15:52:16.353Z,54.80
2018-03-11T15:54:43.799Z,56.43
2018-03-11T15:57:11.565Z,56.27
2018-03-11T15:59:39.016Z,55.90
2018-03-11T16:02:06.477Z,56.70
2018-03-11T16:04:34.305Z,58.60
2018-03-11T16:07:01.772Z,60.01
2018-03-11T16:09:29.225Z,63.09
2018-03-11T16:11:56.962Z,62.91
2018-03-11T16:14:24.417Z,62.48
2018-03-11T16:16:51.883Z,63.71
2018-03-11T16:19:19.636Z,65.22
2018-03-11T16:21:47.109Z,66.41
2018-03-11T16:24:14.560Z,67.26
2018-03-11T16:26:42.328Z,68.33
2018-03-11T16:29:09.797Z,69.29
2018-03-11T16:31:37.257Z,71.36
2018-03-11T16:34:04.930Z,71.66
2018-03-11T16:36:32.386Z,73.40
2018-03-11T16:38:59.841Z,72.92
2018-03-11T16:41:27.695Z,73.66
2018-03-11T16:43:55.158Z,75.47
2018-03-11T16:46:22.638Z,76.43
2018-03-11T16:48:51.613Z,76.35
2018-03-11T16:51:19.067Z,77.09
2018-03-11T16:53:46.528Z,78.10
2018-03-11T16:56:14.606Z,78.22
2018-03-11T16:58:42.062Z,78.35
2018-03-11T17:01:09.531Z,79.14
2018-03-11T17:03:37.296Z,78.99
2018-03-11T17:06:04.765Z,79.86
2018-03-11T17:08:32.225Z,79.68
2018-03-11T17:11:00.283Z,79.96
2018-03-11T17:13:27.749Z,80.65
2018-03-11T17:15:55.206Z,81.27
2018-03-11T17:18:22.947Z,80.68
2018-03-11T17:20:50.413Z,81.25
2018-03-11T17:23:17.869Z,82.18
2018-03-11T17:25:45.668Z,82.75
2018-03-11T17:28:13.125Z,82.45
2018-03-11T17:30:40.589Z,81.83
2018-03-11T17:33:08.348Z,82.07
2018-03-11T17:35:35.817Z,81.43
2018-03-11T17:38:03.303Z,82.17
2018-03-11T17:40:31.650Z,82.24
2018-03-11T17:42:59.161Z,82.88
2018-03-11T17:45:26.629Z,82.25
2018-03-11T17:47:54.637Z,81.94
2018-03-11T17:50:22.480Z,83.72
2018-03-11T17:52:49.940Z,83.17
2018-03-11T17:55:17.637Z,82.82
2018-03-11T17:57:45.090Z,82.47
2018-03-11T18:00:12.548Z,82.61
2018-03-11T18:02:40.638Z,82.21
2018-03-11T18:05:08.106Z,82.15
2018-03-11T18:07:35.582Z,82.65
2018-03-11T18:10:03.340Z,82.75
2018-03-11T18:12:30.888Z,82.65
2018-03-11T18:14:58.287Z,82.24
2018-03-11T18:17:26.006Z,82.26
2018-03-11T18:19:53.467Z,82.37
2018-03-11T18:22:20.941Z,82.58
2018-03-11T18:24:49.036Z,82.46
2018-03-11T18:27:16.497Z,82.71
2018-03-11T18:29:43.954Z,81.92
2018-03-11T18:32:11.730Z,82.07
2018-03-11T18:34:39.179Z,82.36
2018-03-11T18:37:06.627Z,82.23
2018-03-11T18:39:34.580Z,83.45
2018-03-11T18:42:02.045Z,84.45
2018-03-11T18:44:29.508Z,84.09
2018-03-11T18:46:57.364Z,84.20
2018-03-11T18:49:24.838Z,84.83
2018-03-11T18:51:52.672Z,84.94
2018-03-11T18:54:20.680Z,83.93
2018-03-11T18:56:48.149Z,83.58
2018-03-11T18:59:15.633Z,83.37
2018-03-11T19:01:43.687Z,83.75
2018-03-11T19:04:11.146Z,83.78
2018-03-11T19:06:38.605Z,83.24
2018-03-11T19:09:06.227Z,82.32
2018-03-11T19:11:33.678Z,82.71
2018-03-11T19:14:01.129Z,81.74
2018-03-11T19:16:29.063Z,82.10
2018-03-11T19:18:56.512Z,81.20
2018-03-11T19:21:24.344Z,81.70
2018-03-11T19:23:52.270Z,81.30
2018-03-11T19:26:19.733Z,81.68
2018-03-11T19:28:47.209Z,80.91
2018-03-11T19:31:15.056Z,81.13
2018-03-11T19:33:42.513Z,81.25
2018-03-11T19:36:09.976Z,81.52
2018-03-11T19:38:37.726Z,81.42
2018-03-11T19:41:05.213Z,80.03
2018-03-11T19:43:32.663Z,80.37
2018-03-11T19:46:01.021Z,80.68
2018-03-11T19:48:28.484Z,81.84
2018-03-11T19:50:55.952Z,83.20
2018-03-11T19:53:24.023Z,85.25
2018-03-11T19:55:51.518Z,87.69
2018-03-11T19:58:18.962Z,88.38
2018-03-11T20:00:46.771Z,89.35
2018-03-11T20:03:14.240Z,89.05
2018-03-11T20:05:41.874Z,89.19
2018-03-11T20:08:09.697Z,89.74
2018-03-11T20:10:37.189Z,90.00
2018-03-11T20:13:04.647Z,89.25
2018-03-11T20:15:32.288Z,90.22
2018-03-11T20:17:59.758Z,91.48
2018-03-11T20:20:27.230Z,90.88
2018-03-11T20:22:55.071Z,90.88
2018-03-11T20:25:22.533Z,90.80
2018-03-11T20:27:50.030Z,90.82
2018-03-11T20:30:17.966Z,90.70
2018-03-11T20:32:45.437Z,90.99
2018-03-11T20:35:12.917Z,90.96
2018-03-11T20:37:40.662Z,91.11
2018-03-11T20:40:08.136Z,91.96
2018-03-11T20:42:35.600Z,92.01
2018-03-11T20:45:03.322Z,91.77
2018-03-11T20:47:30.786Z,92.00
2018-03-11T20:49:58.269Z,92.08
2018-03-11T20:52:26.074Z,91.67
2018-03-11T20:54:54.015Z,91.22
2018-03-11T20:57:21.453Z,91.29
2018-03-11T20:59:49.382Z,91.19
2018-03-11T21:02:16.842Z,91.08
2018-03-11T21:04:44.370Z,90.64
2018-03-11T21:07:12.143Z,90.10
2018-03-11T21:09:39.592Z,90.54
2018-03-11T21:12:07.047Z,91.05
2018-03-11T21:14:35.114Z,90.75
2018-03-11T21:17:02.638Z,89.73
2018-03-11T21:19:30.062Z,89.95
2018-03-11T21:21:57.798Z,89.67
2018-03-11T21:24:25.285Z,90.00
2018-03-11T21:26:52.734Z,90.10
2018-03-11T21:29:20.526Z,89.91
2018-03-11T21:31:48.010Z,89.92
2018-03-11T21:34:15.468Z,90.80
2018-03-11T21:36:43.496Z,90.32
2018-03-11T21:39:10.961Z,90.05
2018-03-11T21:41:38.426Z,90.25
2018-03-11T21:44:06.194Z,90.23
2018-03-11T21:46:33.704Z,90.24
2018-03-11T21:49:01.137Z,90.07
2018-03-11T21:51:28.853Z,89.67
2018-03-11T21:53:56.318Z,89.00
2018-03-11T21:56:24.162Z,87.62
2018-03-11T21:58:51.849Z,86.01
2018-03-11T22:01:19.324Z,86.32
2018-03-11T22:03:46.779Z,84.93
2018-03-11T22:06:14.413Z,85.09
2018-03-11T22:08:41.870Z,84.86
2018-03-11T22:11:09.326Z,83.68
2018-03-11T22:13:37.284Z,83.25
2018-03-11T22:16:04.742Z,82.51
2018-03-11T22:18:32.196Z,81.80
2018-03-11T22:21:00.219Z,80.49
2018-03-11T22:23:27.682Z,81.22
2018-03-11T22:25:55.155Z,80.88
2018-03-11T22:28:22.777Z,81.09
2018-03-11T22:30:50.224Z,79.89
2018-03-11T22:33:17.676Z,79.61
2018-03-11T22:35:45.611Z,79.47
2018-03-11T22:38:13.050Z,78.68
2018-03-11T22:40:40.511Z,78.47
2018-03-11T22:43:08.584Z,78.30
2018-03-11T22:45:36.040Z,78.06
2018-03-11T22:48:03.500Z,78.92
2018-03-11T22:50:31.614Z,78.18
2018-03-11T22:52:59.050Z,77.85
2018-03-11T22:55:26.507Z,76.95
2018-03-11T22:57:55.498Z,77.21
2018-03-11T23:00:22.954Z,77.13
2018-03-11T23:02:50.400Z,76.73
2018-03-11T23:05:18.478Z,76.50
2018-03-11T23:07:45.925Z,75.72
2018-03-11T23:10:13.384Z,76.15
2018-03-11T23:12:41.274Z,76.92
2018-03-11T23:15:08.773Z,76.01
2018-03-11T23:17:36.198Z,76.20
2018-03-11T23:20:03.853Z,76.48
2018-03-11T23:22:31.290Z,76.35
2018-03-11T23:24:58.742Z,75.73
2018-03-11T23:27:26.467Z,75.86
2018-03-11T23:29:53.926Z,75.52
2018-03-11T23:32:21.376Z,75.24
2018-03-11T23:34:49.088Z,75.15
2018-03-11T23:37:16.548Z,75.49
2018-03-11T23:39:44.011Z,75.49
2018-03-11T23:42:11.746Z,75.36
2018-03-11T23:44:39.776Z,75.22
2018-03-11T23:47:07.239Z,74.89
2018-03-11T23:49:35.228Z,75.35
2018-03-11T23:52:02.677Z,75.08
2018-03-11T23:54:30.121Z,74.75
2018-03-11T23:56:57.933Z,74.51
2018-03-11T23:59:25.738Z,72.87
